createdAt,value
2018-11-28T00:02:02.596Z,51.63
2018-11-28T00:05:10.038Z,51.40
2018-11-28T00:08:15.320Z,52.87
2018-11-28T00:11:20.723Z,46.27
2018-11-28T00:14:26.004Z,44.83
2018-11-28T00:17:31.407Z,50.67
2018-11-28T00:20:36.809Z,50.40
2018-11-28T00:23:42.091Z,50.57
2018-11-28T00:26:47.492Z,46.40
2018-11-28T00:29:52.773Z,46.00
2018-11-28T00:32:58.420Z,44.90
2018-11-28T00:36:03.819Z,49.87
2018-11-28T00:39:09.102Z,47.77
2018-11-28T00:42:14.503Z,48.57
2018-11-28T00:45:21.706Z,48.87
2018-11-28T00:48:26.987Z,52.30
2018-11-28T00:51:32.389Z,48.07
2018-11-28T00:54:37.672Z,48.60
2018-11-28T00:57:43.192Z,53.77
2018-11-28T01:00:48.714Z,51.20
2018-11-28T01:03:54.117Z,44.10
2018-11-28T01:07:01.919Z,54.87
2018-11-28T01:10:10.920Z,50.97
2018-11-28T01:13:16.323Z,40.53
2018-11-28T01:16:21.724Z,47.07
2018-11-28T01:19:27.246Z,47.97
2018-11-28T01:22:32.769Z,50.43
2018-11-28T01:25:38.051Z,51.73
2018-11-28T01:28:46.455Z,55.33
2018-11-28T01:31:48.976Z,59.13
2018-11-28T01:34:54.377Z,57.77
2018-11-28T01:37:59.779Z,52.70
2018-11-28T01:41:05.422Z,54.97
2018-11-28T01:44:10.702Z,52.50
2018-11-28T01:47:16.105Z,55.80
2018-11-28T01:50:21.867Z,50.80
2018-11-28T01:53:27.269Z,55.40
2018-11-28T01:56:32.795Z,52.70
2018-11-28T01:59:45.994Z,60.67
2018-11-28T02:02:56.437Z,51.97
2018-11-28T02:06:01.717Z,51.33
2018-11-28T02:09:08.199Z,55.47
2018-11-28T02:12:13.601Z,55.07
2018-11-28T02:15:20.085Z,60.07
2018-11-28T02:18:25.725Z,54.07
2018-11-28T02:21:31.128Z,56.67
2018-11-28T02:24:36.414Z,56.97
2018-11-28T02:27:42.179Z,59.07
2018-11-28T02:30:47.574Z,56.20
2018-11-28T02:33:52.873Z,58.03
2018-11-28T02:36:58.257Z,57.93
2018-11-28T02:40:04.140Z,56.27
2018-11-28T02:43:09.541Z,65.80
2018-11-28T02:46:26.223Z,61.50
2018-11-28T02:49:31.505Z,67.90
2018-11-28T02:52:36.908Z,64.47
2018-11-28T02:55:42.310Z,67.33
2018-11-28T02:58:47.595Z,56.43
2018-11-28T03:01:53.235Z,71.17
2018-11-28T03:04:58.517Z,69.73
2018-11-28T03:08:04.040Z,67.40
2018-11-28T03:11:17.240Z,69.07
2018-11-28T03:14:22.645Z,73.93
2018-11-28T03:17:28.045Z,73.17
2018-11-28T03:20:33.446Z,72.07
2018-11-28T03:23:38.848Z,72.70
2018-11-28T03:26:44.251Z,71.00
2018-11-28T03:29:49.651Z,81.50
2018-11-28T03:32:55.056Z,78.77
2018-11-28T03:36:13.778Z,75.17
2018-11-28T03:39:19.058Z,67.83
2018-11-28T03:42:24.463Z,85.90
2018-11-28T03:45:29.863Z,82.43
2018-11-28T03:48:35.144Z,78.40
2018-11-28T03:51:40.547Z,78.97
2018-11-28T03:54:45.829Z,84.20
2018-11-28T03:57:51.231Z,84.40
2018-11-28T04:00:56.633Z,80.13
2018-11-28T04:04:01.917Z,81.57
2018-11-28T04:07:07.318Z,78.00
2018-11-28T04:10:13.801Z,75.27
2018-11-28T04:13:19.207Z,77.63
2018-11-28T04:16:24.604Z,71.73
2018-11-28T04:19:30.125Z,74.37
2018-11-28T04:22:50.769Z,73.20
2018-11-28T04:25:56.050Z,66.73
2018-11-28T04:29:01.455Z,83.20
2018-11-28T04:32:06.853Z,83.63
2018-11-28T04:35:13.575Z,79.23
2018-11-28T04:38:18.978Z,78.83
2018-11-28T04:41:24.262Z,79.30
2018-11-28T04:44:29.662Z,77.77
2018-11-28T04:47:35.185Z,79.80
2018-11-28T04:50:40.706Z,77.40
2018-11-28T04:53:45.988Z,84.57
2018-11-28T04:56:51.389Z,78.33
2018-11-28T04:59:57.152Z,81.77
2018-11-28T05:03:02.433Z,80.27
2018-11-28T05:06:08.076Z,76.67
2018-11-28T05:09:13.358Z,77.90
2018-11-28T05:12:18.777Z,72.67
2018-11-28T05:15:26.461Z,73.33
2018-11-28T05:18:31.844Z,69.77
2018-11-28T05:21:37.246Z,66.40
2018-11-28T05:24:43.007Z,77.17
2018-11-28T05:27:49.256Z,75.60
2018-11-28T05:30:54.772Z,75.30
2018-11-28T05:34:00.173Z,75.90
2018-11-28T05:37:06.295Z,72.27
2018-11-28T05:40:27.418Z,73.73
2018-11-28T05:43:32.939Z,74.70
2018-11-28T05:46:38.463Z,72.17
2018-11-28T05:49:44.345Z,73.43
2018-11-28T05:52:50.353Z,78.20
2018-11-28T05:55:56.107Z,87.93
2018-11-28T05:59:01.634Z,76.63
2018-11-28T06:02:07.273Z,88.87
2018-11-28T06:05:27.558Z,81.73
2018-11-28T06:08:33.200Z,74.20
2018-11-28T06:11:40.638Z,113.87
2018-11-28T06:14:46.283Z,81.90
2018-11-28T06:17:52.162Z,77.17
2018-11-28T06:21:18.685Z,73.83
2018-11-28T06:24:24.208Z,80.63
2018-11-28T06:27:29.848Z,79.67
2018-11-28T06:30:36.095Z,76.87
2018-11-28T06:33:41.617Z,78.70
2018-11-28T06:36:47.262Z,79.83
2018-11-28T06:39:52.779Z,82.57
2018-11-28T06:42:58.664Z,86.43
2018-11-28T06:46:04.792Z,90.67
2018-11-28T06:49:10.429Z,118.87
2018-11-28T06:52:15.948Z,75.43
2018-11-28T06:55:21.954Z,81.17
2018-11-28T06:58:29.751Z,71.00
2018-11-28T07:01:35.752Z,74.47
2018-11-28T07:04:43.315Z,73.90
2018-11-28T07:07:51.004Z,75.13
2018-11-28T07:10:58.328Z,74.20
2018-11-28T07:14:04.082Z,86.40
2018-11-28T07:17:09.607Z,73.17
2018-11-28T07:20:23.532Z,77.93
2018-11-28T07:23:29.295Z,79.40
2018-11-28T07:26:36.012Z,70.20
2018-11-28T07:29:42.854Z,83.07
2018-11-28T07:32:51.139Z,89.27
2018-11-28T07:35:57.378Z,73.13
2018-11-28T07:39:03.740Z,69.37
2018-11-28T07:42:19.114Z,86.00
2018-11-28T07:45:24.983Z,66.50
2018-11-28T07:48:32.783Z,65.90
2018-11-28T08:09:57.405Z,53.28
2018-11-28T08:13:02.382Z,154.07
2018-11-28T08:16:09.223Z,50.33
2018-11-28T08:19:16.224Z,52.97
2018-11-28T08:22:21.268Z,110.43
2018-11-28T08:25:27.999Z,69.53
2018-11-28T08:28:36.133Z,61.73
2018-11-28T08:31:41.503Z,54.87
2018-11-28T08:34:46.510Z,54.50
2018-11-28T08:37:51.515Z,59.20
2018-11-28T08:40:58.492Z,57.53
2018-11-28T08:44:03.720Z,50.67
2018-11-28T08:47:08.749Z,57.07
2018-11-28T08:50:15.139Z,58.53
2018-11-28T08:53:20.336Z,54.60
2018-11-28T08:56:25.378Z,59.40
2018-11-28T08:59:30.406Z,60.40
2018-11-28T09:02:35.464Z,55.73
2018-11-28T09:05:40.532Z,60.03
2018-11-28T09:08:47.236Z,59.40
2018-11-28T09:11:52.289Z,56.03
2018-11-28T09:14:57.321Z,59.00
2018-11-28T09:18:04.555Z,55.83
2018-11-28T09:21:09.617Z,54.90
2018-11-28T09:24:14.754Z,56.80
2018-11-28T09:27:19.801Z,52.80
2018-11-28T09:30:25.001Z,49.53
2018-11-28T09:33:30.133Z,51.27
2018-11-28T09:36:37.728Z,50.90
2018-11-28T09:39:45.101Z,46.27
2018-11-28T09:42:51.243Z,46.13
2018-11-28T09:45:56.337Z,44.50
2018-11-28T09:49:02.474Z,43.87
2018-11-28T09:52:07.520Z,42.33
2018-11-28T09:55:13.905Z,43.53
2018-11-28T09:58:20.605Z,42.33
2018-11-28T10:01:26.734Z,40.37
2018-11-28T10:04:33.258Z,40.07
2018-11-28T10:07:39.451Z,42.10
2018-11-28T10:10:44.480Z,81.27
2018-11-28T10:13:52.176Z,37.73
2018-11-28T10:16:59.254Z,36.93
2018-11-28T10:20:04.979Z,35.70
2018-11-28T10:23:11.920Z,37.47
2018-11-28T10:26:16.972Z,37.17
2018-11-28T10:29:23.664Z,35.60
2018-11-28T10:32:29.908Z,32.60
2018-11-28T10:35:35.867Z,33.60
2018-11-28T10:38:44.739Z,30.13
2018-11-28T10:41:49.896Z,31.70
2018-11-28T10:44:54.965Z,33.37
2018-11-28T10:48:00.057Z,34.80
2018-11-28T10:51:05.869Z,35.70
2018-11-28T10:54:11.899Z,58.27
2018-11-28T10:57:16.946Z,56.50
2018-11-28T11:00:29.860Z,41.60
2018-11-28T11:03:40.844Z,30.07
2018-11-28T11:06:56.423Z,33.73
2018-11-28T11:10:07.120Z,36.40
2018-11-28T11:13:18.015Z,33.23
2018-11-28T11:16:28.884Z,35.47
2018-11-28T11:19:33.931Z,36.70
2018-11-28T11:22:38.876Z,35.37
2018-11-28T11:25:44.058Z,37.77
2018-11-28T11:28:49.063Z,37.10
2018-11-28T11:31:55.837Z,33.67
2018-11-28T11:35:00.828Z,34.83
2018-11-28T11:38:05.915Z,35.23
2018-11-28T11:41:12.573Z,38.80
2018-11-28T11:44:19.435Z,37.07
2018-11-28T11:47:24.488Z,36.17
2018-11-28T11:50:31.156Z,36.37
2018-11-28T11:53:36.139Z,38.40
2018-11-28T11:56:41.190Z,38.77
2018-11-28T11:59:46.247Z,34.33
2018-11-28T12:03:11.672Z,34.50
2018-11-28T12:06:18.675Z,33.60
2018-11-28T12:09:27.210Z,33.47
2018-11-28T12:12:34.172Z,33.80
2018-11-28T12:15:39.213Z,35.73
2018-11-28T12:18:46.060Z,31.83
2018-11-28T12:22:58.355Z,35.47
2018-11-28T12:26:18.375Z,32.53
2018-11-28T12:29:23.455Z,36.50
2018-11-28T12:32:28.497Z,33.97
2018-11-28T12:35:33.546Z,31.37
2018-11-28T12:38:38.617Z,31.10
2018-11-28T12:41:45.361Z,32.50
2018-11-28T12:44:52.243Z,34.57
2018-11-28T12:47:57.312Z,31.77
2018-11-28T12:51:02.361Z,31.07
2018-11-28T12:54:07.377Z,33.90
2018-11-28T12:57:14.216Z,34.23
2018-11-28T13:00:23.073Z,41.50
2018-11-28T13:03:29.801Z,41.60
2018-11-28T13:06:38.687Z,37.97
2018-11-28T13:09:44.233Z,33.03
2018-11-28T13:12:59.730Z,32.27
2018-11-28T13:16:05.312Z,30.77
2018-11-28T13:19:10.645Z,32.23
2018-11-28T13:22:20.907Z,30.33
2018-11-28T13:25:28.121Z,55.13
2018-11-28T13:28:35.131Z,31.57
2018-11-28T13:31:41.912Z,31.27
2018-11-28T13:34:52.564Z,30.67
2018-11-28T13:38:01.066Z,27.23
2018-11-28T13:41:07.943Z,32.03
2018-11-28T13:44:12.944Z,30.67
2018-11-28T13:47:18.013Z,29.53
2018-11-28T13:50:25.047Z,28.87
2018-11-28T13:53:32.030Z,26.73
2018-11-28T13:59:47.585Z,27.90
2018-11-28T14:02:55.810Z,28.80
2018-11-28T14:06:02.856Z,24.93
2018-11-28T14:09:09.962Z,26.90
2018-11-28T14:12:16.916Z,24.90
2018-11-28T14:15:24.066Z,27.60
2018-11-28T14:18:32.010Z,23.97
2018-11-28T14:21:44.673Z,27.17
2018-11-28T14:24:51.486Z,27.43
2018-11-28T14:27:58.738Z,20.60
2018-11-28T14:31:06.025Z,21.90
2018-11-28T14:34:15.469Z,22.27
2018-11-28T14:37:24.455Z,24.13
2018-11-28T14:40:29.697Z,30.77
2018-11-28T14:43:34.904Z,34.03
2018-11-28T14:46:41.840Z,26.77
2018-11-28T14:49:46.847Z,29.40
2018-11-28T14:52:54.501Z,28.67
2018-11-28T14:56:01.172Z,29.67
2018-11-28T14:59:06.288Z,28.83
2018-11-28T15:02:13.346Z,29.43
2018-11-28T15:05:23.857Z,29.30
2018-11-28T15:08:29.435Z,27.27
2018-11-28T15:11:39.140Z,29.60
2018-11-28T15:14:46.184Z,35.17
2018-11-28T15:17:51.381Z,33.20
2018-11-28T15:20:59.727Z,31.87
2018-11-28T15:24:06.747Z,43.63
2018-11-28T15:27:13.771Z,46.17
2018-11-28T15:30:20.821Z,42.07
2018-11-28T15:33:25.924Z,34.17
2018-11-28T15:36:30.980Z,42.03
2018-11-28T15:39:36.059Z,34.53
2018-11-28T15:42:41.116Z,32.93
2018-11-28T15:45:46.162Z,47.13
2018-11-28T15:48:51.222Z,47.03
2018-11-28T15:51:56.268Z,56.63
2018-11-28T15:55:01.389Z,49.17
2018-11-28T15:58:06.480Z,41.40
2018-11-28T16:01:11.623Z,40.93
2018-11-28T16:04:16.633Z,49.60
2018-11-28T16:07:21.664Z,44.07
2018-11-28T16:10:32.366Z,35.40
2018-11-28T16:13:37.435Z,46.90
2018-11-28T16:16:49.967Z,45.73
2018-11-28T16:19:54.953Z,38.93
2018-11-28T16:23:04.126Z,36.90
2018-11-28T16:26:05.351Z,36.47
2018-11-28T16:29:10.555Z,35.23
2018-11-28T16:32:15.540Z,32.60
2018-11-28T16:35:20.584Z,37.23
2018-11-28T16:38:33.231Z,32.50
2018-11-28T16:41:38.149Z,125.47
2018-11-28T16:44:43.103Z,47.70
2018-11-28T16:47:48.329Z,31.33
2018-11-28T16:50:53.298Z,31.73
2018-11-28T16:53:58.258Z,38.53
2018-11-28T16:57:03.233Z,36.30
2018-11-28T17:00:11.814Z,32.73
2018-11-28T17:03:16.807Z,29.07
2018-11-28T17:06:21.773Z,32.40
2018-11-28T17:09:26.763Z,29.17
2018-11-28T17:12:31.719Z,30.77
2018-11-28T17:15:36.776Z,34.50
2018-11-28T17:18:41.747Z,30.83
2018-11-28T17:21:46.764Z,33.90
2018-11-28T17:24:51.778Z,34.10
2018-11-28T17:27:56.744Z,40.23
2018-11-28T17:31:01.727Z,42.43
2018-11-28T17:34:06.735Z,35.57
2018-11-28T17:37:42.536Z,30.80
2018-11-28T17:40:47.636Z,37.63
2018-11-28T17:43:52.659Z,31.57
2018-11-28T17:46:57.674Z,35.30
2018-11-28T17:50:03.487Z,30.77
2018-11-28T17:53:11.789Z,34.20
2018-11-28T17:56:16.803Z,27.30
2018-11-28T17:59:21.776Z,27.67
2018-11-28T18:02:26.870Z,29.63
2018-11-28T18:05:31.875Z,31.23
2018-11-28T18:08:36.868Z,32.17
2018-11-28T18:11:41.847Z,30.33
2018-11-28T18:14:46.965Z,36.33
2018-11-28T18:17:53.379Z,34.17
2018-11-28T18:20:58.359Z,30.93
2018-11-28T18:24:03.419Z,34.30
2018-11-28T18:27:08.387Z,28.67
2018-11-28T18:30:13.486Z,30.90
2018-11-28T18:33:18.520Z,26.20
2018-11-28T18:36:23.507Z,36.90
2018-11-28T18:39:28.454Z,31.07
2018-11-28T18:42:33.360Z,32.43
2018-11-28T18:45:40.386Z,35.03
2018-11-28T18:48:45.315Z,33.03
2018-11-28T18:51:50.405Z,34.70
2018-11-28T18:54:55.399Z,39.20
2018-11-28T18:58:00.479Z,34.23
2018-11-28T19:01:05.540Z,38.70
2018-11-28T19:04:11.108Z,47.87
2018-11-28T19:07:16.419Z,46.03
2018-11-28T19:10:26.343Z,29.63
2018-11-28T19:13:29.235Z,26.93
2018-11-28T19:19:46.024Z,23.60
2018-11-28T19:22:51.888Z,24.67
2018-11-28T19:25:56.836Z,23.43
2018-11-28T19:29:03.025Z,24.63
2018-11-28T19:32:08.144Z,29.97
2018-11-28T19:35:13.304Z,29.90
2018-11-28T19:38:18.300Z,25.77
2018-11-28T19:41:24.938Z,27.37
2018-11-28T19:44:29.994Z,22.43
2018-11-28T19:47:35.136Z,28.37
2018-11-28T19:50:40.703Z,26.73
2018-11-28T19:53:45.608Z,27.00
2018-11-28T19:56:50.565Z,29.53
2018-11-28T19:59:55.524Z,28.20
2018-11-28T20:03:00.554Z,28.33
2018-11-28T20:06:05.553Z,29.53
2018-11-28T20:09:16.725Z,30.40
2018-11-28T20:12:21.667Z,32.03
2018-11-28T20:15:27.953Z,29.57
2018-11-28T20:18:33.207Z,31.97
2018-11-28T20:21:38.156Z,31.47
2018-11-28T20:24:43.071Z,106.83
2018-11-28T20:27:52.582Z,39.03
2018-11-28T20:30:57.507Z,31.87
2018-11-28T20:34:02.407Z,31.60
2018-11-28T20:37:07.735Z,31.23
2018-11-28T20:40:14.067Z,33.30
2018-11-28T20:43:19.059Z,28.03
2018-11-28T20:46:24.096Z,29.03
2018-11-28T20:49:29.047Z,31.53
2018-11-28T20:52:34.558Z,31.33
2018-11-28T20:55:39.505Z,33.37
2018-11-28T20:58:44.512Z,29.47
2018-11-28T21:01:49.618Z,30.43
2018-11-28T21:04:54.619Z,28.87
2018-11-28T21:07:59.598Z,27.97
2018-11-28T21:11:05.671Z,29.50
2018-11-28T21:14:10.607Z,32.43
2018-11-28T21:17:15.591Z,31.43
2018-11-28T21:20:22.004Z,34.83
2018-11-28T21:23:26.968Z,37.07
2018-11-28T21:26:31.911Z,32.50
2018-11-28T21:29:36.898Z,31.13
2018-11-28T21:32:42.264Z,39.90
2018-11-28T21:35:48.782Z,38.23
2018-11-28T21:38:53.735Z,36.03
2018-11-28T21:41:58.654Z,37.67
2018-11-28T21:45:05.272Z,35.37
2018-11-28T21:48:10.215Z,34.40
2018-11-28T21:51:15.122Z,35.30
2018-11-28T21:54:20.035Z,33.27
2018-11-28T21:57:24.994Z,40.10
2018-11-28T22:00:29.903Z,40.00
2018-11-28T22:03:34.830Z,42.43
2018-11-28T22:06:39.863Z,41.63
2018-11-28T22:09:44.909Z,41.13
2018-11-28T22:12:49.971Z,35.13
2018-11-28T22:15:54.960Z,40.97
2018-11-28T22:18:59.887Z,37.33
2018-11-28T22:22:39.504Z,40.53
2018-11-28T22:25:44.471Z,36.23
2018-11-28T22:28:49.471Z,41.97
2018-11-28T22:31:54.891Z,38.97
2018-11-28T22:34:59.888Z,36.50
2018-11-28T22:38:05.274Z,34.67
2018-11-28T22:41:10.267Z,37.33
2018-11-28T22:44:15.318Z,37.50
2018-11-28T22:47:20.311Z,37.90
2018-11-28T22:50:25.267Z,38.57
2018-11-28T22:53:30.218Z,32.07
2018-11-28T22:56:35.147Z,40.83
2018-11-28T23:02:58.826Z,38.98
2018-11-28T23:06:04.147Z,40.30
2018-11-28T23:09:09.059Z,38.20
2018-11-28T23:12:13.959Z,41.33
2018-11-28T23:15:18.870Z,42.03
2018-11-28T23:18:23.797Z,37.47
2018-11-28T23:21:39.559Z,38.27
2018-11-28T23:24:44.460Z,42.47
2018-11-28T23:27:49.418Z,34.83
2018-11-28T23:30:54.336Z,33.77
2018-11-28T23:33:59.242Z,37.47
2018-11-28T23:37:05.361Z,37.27
2018-11-28T23:40:13.591Z,41.20
2018-11-28T23:43:18.525Z,35.17
2018-11-28T23:46:23.459Z,39.70
2018-11-28T23:49:28.381Z,40.30
2018-11-28T23:52:33.278Z,40.87
2018-11-28T23:55:38.186Z,43.67
2018-11-28T23:58:43.095Z,39.73
